Data for 11/26/2006

Time Sea-Level Adjusted Pressure Absolute Pressure Temperature Relative Humidity Dew Point   
(mb) (inHg) (mb) (inHg) (C) (F) (%) (C) (F)
00:05 1013 29.91 843 24.89 -6.7 19.9 94 -7.5 18.5
00:10 1013 29.91 843 24.89 -6.7 19.9 94 -7.5 18.5
00:15 1013 29.91 843 24.89 -6.8 19.8 94 -7.6 18.3
00:20 1013 29.91 843 24.89 -6.7 19.9 93 -7.7 18.1
00:25 1013 29.91 843 24.89 -6.7 19.9 93 -7.7 18.2
00:30 1013 29.91 842 24.86 -6.7 19.9 93 -7.7 18.1
00:35 1013 29.91 842 24.86 -6.7 19.9 93 -7.7 18.2
00:40 1013 29.91 842 24.86 -6.6 20 92 -7.7 18.2
00:45 1013 29.91 842 24.86 -6.6 20.2 92 -7.7 18.2
00:50 1013 29.91 842 24.86 -6.5 20.3 91 -7.7 18.1
00:55 1013 29.91 842 24.86 -6.5 20.4 91 -7.7 18.1
01:00 1013 29.91 842 24.86 -6.4 20.4 91 -7.7 18.1
01:05 1013 29.91 842 24.86 -6.4 20.5 90 -7.7 18.2
01:10 1013 29.91 842 24.86 -6.3 20.6 90 -7.7 18.2
01:15 1013 29.91 842 24.86 -6.3 20.7 91 -7.5 18.5
01:20 1013 29.91 843 24.89 -6.3 20.7 92 -7.5 18.6
01:25 1013 29.91 843 24.89 -6.3 20.7 91 -7.4 18.6
01:30 1013 29.91 843 24.89 -6.2 20.8 91 -7.4 18.7
01:35 1013 29.91 843 24.89 -6.2 20.9 91 -7.5 18.6
01:40 1013 29.91 843 24.89 -6.2 20.9 91 -7.4 18.7
01:45 1013 29.91 843 24.89 -6.4 20.4 91 -7.7 18.1
01:50 1014 29.94 843 24.89 -7 19.4 92 -8.1 17.5
01:55 1014 29.94 843 24.89 -7.2 19 93 -8.2 17.2
02:00 1014 29.94 843 24.89 -7.4 18.7 93 -8.3 17
02:05 1014 29.94 843 24.89 -7.4 18.7 93 -8.3 17.1
02:10 1014 29.94 843 24.89 -7.4 18.8 94 -8.2 17.2
02:15 1014 29.94 843 24.89 -7.3 18.8 94 -8.2 17.3
02:20 1014 29.94 843 24.89 -7.2 19 94 -8.1 17.5
02:25 1014 29.94 843 24.89 -7.2 19 94 -8 17.5
02:30 1014 29.94 843 24.89 -7 19.4 93 -7.9 17.7
02:35 1014 29.94 843 24.89 -6.7 19.9 92 -7.8 17.9
02:40 1014 29.94 843 24.89 -6.5 20.3 91 -7.8 18
02:45 1014 29.94 843 24.89 -6.3 20.6 90 -7.7 18.1
02:50 1014 29.94 843 24.89 -6.2 20.8 90 -7.7 18.2
02:55 1014 29.94 843 24.89 -6.1 21 89 -7.7 18.2
03:00 1014 29.94 843 24.89 -6 21.3 88 -7.6 18.3
03:05 1014 29.94 843 24.89 -6 21.3 88 -7.6 18.3
03:10 1014 29.94 843 24.89 -6 21.2 88 -7.6 18.3
03:15 1014 29.94 843 24.89 -6 21.3 88 -7.6 18.3
03:20 1014 29.94 843 24.89 -6 21.2 88 -7.6 18.3
03:25 1014 29.94 843 24.89 -6 21.2 88 -7.6 18.2
03:30 1014 29.94 843 24.89 -5.9 21.4 88 -7.6 18.4
03:35 1014 29.94 843 24.89 -5.9 21.3 88 -7.6 18.3
03:40 1014 29.94 843 24.89 -5.9 21.4 88 -7.6 18.4
03:45 1014 29.94 843 24.89 -5.8 21.5 88 -7.6 18.4
03:50 1014 29.94 843 24.89 -5.8 21.5 87 -7.6 18.4
03:55 1014 29.94 843 24.89 -5.7 21.7 87 -7.5 18.5
04:00 1014 29.94 843 24.89 -5.7 21.8 87 -7.6 18.4
04:05 1014 29.94 843 24.89 -5.6 21.9 87 -7.5 18.5
04:10 1014 29.94 843 24.89 -5.6 22 87 -7.5 18.5
04:15 1014 29.94 843 24.89 -5.5 22.1 86 -7.4 18.6
04:20 1014 29.94 843 24.89 -5.4 22.3 86 -7.4 18.6
04:25 1014 29.94 843 24.89 -5.4 22.3 86 -7.4 18.7
04:30 1014 29.94 843 24.89 -5.3 22.5 85 -7.4 18.6
04:35 1014 29.94 843 24.89 -5.3 22.5 85 -7.4 18.7
04:40 1014 29.94 843 24.89 -5.3 22.5 85 -7.4 18.7
04:45 1014 29.94 843 24.89 -5.2 22.6 85 -7.4 18.8
04:50 1014 29.94 843 24.89 -5.2 22.6 86 -7.3 18.9
04:55 1014 29.94 843 24.89 -5.3 22.5 86 -7.2 19
05:00 1014 29.94 843 24.89 -5.3 22.4 87 -7.2 19
05:05 1014 29.94 843 24.89 -5.3 22.4 87 -7.2 19
05:10 1014 29.94 843 24.89 -5.4 22.2 87 -7.3 18.9
05:15 1014 29.94 843 24.89 -5.5 22.1 87 -7.3 18.9
05:20 1014 29.94 843 24.89 -5.6 22 87 -7.4 18.8
05:25 1014 29.94 843 24.89 -5.6 21.9 87 -7.4 18.6
05:30 1014 29.94 843 24.89 -5.7 21.8 87 -7.5 18.5
05:35 1014 29.94 843 24.89 -5.7 21.7 87 -7.5 18.4
05:40 1014 29.94 843 24.89 -5.8 21.5 88 -7.6 18.3
05:45 1014 29.94 843 24.89 -6 21.2 88 -7.7 18.1
05:50 1014 29.94 843 24.89 -6 21.1 87 -7.8 17.9
05:55 1014 29.94 843 24.89 -6.2 20.9 88 -7.9 17.7
06:00 1014 29.94 843 24.89 -6.2 20.8 87 -8 17.5
06:05 1014 29.94 843 24.89 -6.3 20.7 87 -8.1 17.4
06:10 1014 29.94 843 24.89 -6.3 20.6 87 -8.2 17.3
06:15 1014 29.94 843 24.89 -6.3 20.6 87 -8.2 17.2
06:20 1014 29.94 843 24.89 -6.5 20.4 87 -8.4 16.9
06:25 1014 29.94 843 24.89 -6.5 20.3 87 -8.4 16.9
06:30 1014 29.94 843 24.89 -6.3 20.6 85 -8.4 16.9
06:35 1014 29.94 843 24.89 -6.2 20.9 85 -8.4 16.9
06:40 1014 29.94 843 24.89 -6 21.2 84 -8.3 17.1
06:45 1014 29.94 843 24.89 -5.9 21.4 83 -8.3 17.1
06:50 1014 29.94 843 24.89 -6 21.3 83 -8.4 16.9
06:55 1013 29.91 843 24.89 -6.1 21 83 -8.5 16.7
07:00 1013 29.91 843 24.89 -6 21.2 83 -8.4 16.8
07:05 1013 29.91 843 24.89 -5.9 21.3 83 -8.3 17
07:10 1013 29.91 843 24.89 -5.8 21.6 83 -8.3 17.1
07:15 1013 29.91 843 24.89 -5.8 21.6 83 -8.3 17.1
07:20 1013 29.91 843 24.89 -5.8 21.5 82 -8.4 16.9
07:25 1013 29.91 842 24.86 -5.8 21.5 82 -8.4 16.8
07:30 1013 29.91 843 24.89 -5.9 21.3 82 -8.5 16.7
07:35 1013 29.91 842 24.86 -6.1 21 82 -8.6 16.5
07:40 1013 29.91 843 24.89 -6.1 21 82 -8.6 16.5
07:45 1013 29.91 843 24.89 -6.1 21.1 83 -8.6 16.6
07:50 1013 29.91 843 24.89 -6 21.2 82 -8.5 16.7
07:55 1013 29.91 843 24.89 -6 21.2 83 -8.5 16.7
08:00 1013 29.91 843 24.89 -6.2 20.9 83 -8.6 16.5
08:05 1013 29.91 843 24.89 -6.1 20.9 82 -8.8 16.2
08:10 1013 29.91 842 24.86 -5.8 21.6 81 -8.5 16.7
08:15 1013 29.91 842 24.86 -5.6 22 81 -8.3 17
08:20 1013 29.91 842 24.86 -5.5 22.1 81 -8.2 17.2
08:25 1013 29.91 842 24.86 -5.3 22.4 82 -7.9 17.7
08:30 1013 29.91 842 24.86 -5.2 22.7 81 -7.9 17.8
08:35 1013 29.91 842 24.86 -5.2 22.6 82 -7.9 17.8
08:40 1013 29.91 842 24.86 -5.3 22.4 82 -8 17.6
08:45 1013 29.91 842 24.86 -5.1 22.8 80 -8 17.6
08:50 1013 29.91 842 24.86 -5.1 22.9 80 -8 17.6
08:55 1013 29.91 842 24.86 -5.1 22.8 80 -8.1 17.5
09:00 1013 29.91 842 24.86 -5.1 22.8 80 -8 17.5
09:05 1013 29.91 842 24.86 -5 23.1 79 -8.1 17.4
09:10 1013 29.91 842 24.86 -4.9 23.1 78 -8.1 17.4
09:15 1013 29.91 842 24.86 -4.9 23.3 78 -8.1 17.4
09:20 1013 29.91 842 24.86 -4.8 23.4 78 -8.1 17.4
09:25 1013 29.91 842 24.86 -4.7 23.5 77 -8.1 17.4
09:30 1013 29.91 842 24.86 -4.6 23.6 77 -8.1 17.5
09:35 1013 29.91 842 24.86 -4.5 23.9 74 -8.5 16.7
09:40 1013 29.91 842 24.86 -5.4 22.4 78 -8.7 16.4
09:45 1013 29.91 842 24.86 -5.8 21.6 80 -8.7 16.3
09:50 1013 29.91 842 24.86 -5.4 22.3 80 -8.4 16.9
09:55 1013 29.91 842 24.86 -5.9 21.3 82 -8.6 16.6
10:00 1013 29.91 842 24.86 -5.7 21.8 81 -8.4 16.9
10:05 1013 29.91 842 24.86 -5.1 22.8 78 -8.4 16.9
10:10 1013 29.91 842 24.86 -4.8 23.4 78 -8 17.6
10:15 1013 29.91 842 24.86 -4.3 24.3 75 -8 17.5
10:20 1013 29.91 842 24.86 -4 24.8 75 -7.7 18.1
10:25 1013 29.91 842 24.86 -4 24.8 76 -7.7 18.2
10:30 1012 29.88 842 24.86 -3.9 24.9 75 -7.7 18.1
10:35 1012 29.88 842 24.86 -4 24.9 75 -7.8 18
10:40 1012 29.88 842 24.86 -3.9 25 75 -7.7 18.1
10:45 1012 29.88 841 24.83 -4.1 24.7 76 -7.7 18.2
10:50 1012 29.88 841 24.83 -4.2 24.4 77 -7.7 18.1
10:55 1012 29.88 841 24.83 -4.2 24.5 76 -7.9 17.8
11:00 1012 29.88 841 24.83 -4.2 24.5 75 -8 17.6
11:05 1012 29.88 841 24.83 -4.2 24.4 75 -8.1 17.5
11:10 1012 29.88 841 24.83 -4.2 24.4 74 -8.2 17.3
11:15 1012 29.88 841 24.83 -4.4 24.1 74 -8.3 17.1
11:20 1012 29.88 841 24.83 -4.5 23.8 75 -8.3 17
11:25 1012 29.88 841 24.83 -4.6 23.7 75 -8.4 16.8
11:30 1012 29.88 841 24.83 -4.6 23.8 74 -8.5 16.6
11:35 1011 29.85 841 24.83 -4.5 23.9 75 -8.3 17
11:40 1011 29.85 841 24.83 -4.3 24.2 73 -8.4 16.8
11:45 1011 29.85 840 24.81 -4 24.8 72 -8.4 16.9
11:50 1011 29.85 840 24.81 -4.3 24.2 73 -8.5 16.6
11:55 1011 29.85 840 24.81 -4.6 23.7 74 -8.6 16.5
12:00 1011 29.85 840 24.81 -4.7 23.6 74 -8.6 16.5
12:05 1011 29.85 840 24.81 -4.9 23.1 75 -8.7 16.3
12:10 1011 29.85 840 24.81 -5.1 22.8 75 -8.8 16.2
12:15 1011 29.85 840 24.81 -5 23 75 -8.9 16
12:20 1011 29.85 840 24.81 -4.7 23.5 74 -8.7 16.3
12:25 1011 29.85 840 24.81 -4.5 24 72 -8.7 16.3
12:30 1011 29.85 840 24.81 -4.5 24 74 -8.4 16.8
12:35 1011 29.85 840 24.81 -4.4 24.1 73 -8.5 16.8
12:40 1011 29.85 840 24.81 -5 23.1 74 -8.8 16.1
12:45 1011 29.85 840 24.81 -5.4 22.3 76 -9 15.8
12:50 1010 29.83 840 24.81 -5.3 22.4 76 -8.9 15.9
12:55 1010 29.83 840 24.81 -5.3 22.5 75 -9 15.7
13:00 1010 29.83 839 24.78 -5.4 22.3 76 -8.9 15.9
13:05 1010 29.83 839 24.78 -5.2 22.6 75 -8.9 15.9
13:10 1010 29.83 839 24.78 -5.3 22.5 75 -9 15.8
13:15 1010 29.83 839 24.78 -5.3 22.5 75 -9.1 15.7
13:20 1010 29.83 839 24.78 -5.1 22.7 75 -9 15.8
13:25 1010 29.83 839 24.78 -4.9 23.2 73 -8.9 15.9
13:30 1010 29.83 839 24.78 -4.5 23.9 73 -8.7 16.3
13:35 1010 29.83 839 24.78 -4.5 23.9 72 -8.8 16.1
13:40 1010 29.83 839 24.78 -4.3 24.2 71 -8.8 16.1
13:45 1010 29.83 839 24.78 -4.1 24.6 70 -8.7 16.3
13:50 1009 29.8 839 24.78 -4.2 24.5 71 -8.7 16.4
13:55 1009 29.8 839 24.78 -4.1 24.5 69 -9 15.9
14:00 1009 29.8 839 24.78 -3.7 25.3 69 -8.7 16.4
14:05 1009 29.8 838 24.75 -3.9 25.1 68 -8.9 16
14:10 1009 29.8 838 24.75 -4.1 24.6 69 -9 15.8
14:15 1009 29.8 838 24.75 -4.1 24.7 69 -9 15.8
14:20 1009 29.8 838 24.75 -4 24.7 69 -9 15.9
14:25 1009 29.8 838 24.75 -4.2 24.4 69 -9.1 15.5
14:30 1009 29.8 838 24.75 -4.5 23.9 68 -9.5 15
14:35 1009 29.8 838 24.75 -4.6 23.7 68 -9.6 14.7
14:40 1009 29.8 838 24.75 -4.6 23.6 69 -9.6 14.8
14:45 1009 29.8 838 24.75 -4.8 23.4 68 -9.8 14.4
14:50 1009 29.8 838 24.75 -4.8 23.3 67 -10 14.1
14:55 1009 29.8 838 24.75 -4.6 23.7 67 -9.8 14.3
15:00 1009 29.8 838 24.75 -4.7 23.6 67 -9.8 14.3
15:05 1009 29.8 838 24.75 -4.6 23.8 67 -9.7 14.5
15:10 1009 29.8 838 24.75 -4.6 23.8 67 -9.7 14.5
15:15 1009 29.8 838 24.75 -4.6 23.7 67 -9.9 14.2
15:20 1009 29.8 838 24.75 -4.8 23.3 68 -9.9 14.2
15:25 1008 29.77 838 24.75 -4.9 23.1 67 -10.2 13.7
15:30 1008 29.77 838 24.75 -5.1 22.8 67 -10.2 13.6
15:35 1008 29.77 838 24.75 -5.2 22.6 68 -10.2 13.6
15:40 1008 29.77 838 24.75 -5.2 22.6 68 -10.3 13.4
15:45 1008 29.77 838 24.75 -5.1 22.8 67 -10.3 13.5
15:50 1008 29.77 837 24.72 -5.1 22.8 67 -10.3 13.5
15:55 1008 29.77 837 24.72 -5.2 22.6 68 -10.3 13.5
16:00 1008 29.77 837 24.72 -5.3 22.4 68 -10.4 13.3
16:05 1008 29.77 838 24.75 -5.5 22.2 68 -10.4 13.3
16:10 1008 29.77 837 24.72 -5.6 21.8 68 -10.6 12.9
16:15 1008 29.77 837 24.72 -5.9 21.4 70 -10.5 13.2
16:20 1008 29.77 837 24.72 -6 21.2 70 -10.7 12.8
16:25 1008 29.77 837 24.72 -6.1 20.9 70 -10.7 12.8
16:30 1008 29.77 837 24.72 -6.3 20.6 71 -10.8 12.6
16:35 1008 29.77 837 24.72 -6.5 20.4 71 -10.8 12.5
16:40 1008 29.77 837 24.72 -6.6 20.1 72 -10.9 12.5
16:45 1008 29.77 837 24.72 -6.6 20.1 72 -10.9 12.4
16:50 1008 29.77 837 24.72 -6.7 19.9 72 -10.9 12.4
16:55 1008 29.77 837 24.72 -6.8 19.8 72 -11 12.3
17:00 1008 29.77 837 24.72 -6.7 20 72 -10.9 12.3
17:05 1008 29.77 837 24.72 -6.8 19.8 72 -11 12.1
17:10 1008 29.77 837 24.72 -6.8 19.8 72 -11 12.2
17:15 1008 29.77 837 24.72 -6.7 19.9 72 -11 12.1
17:20 1008 29.77 837 24.72 -6.9 19.5 72 -11.2 11.9
17:25 1008 29.77 837 24.72 -7 19.4 72 -11.2 11.8
17:30 1008 29.77 837 24.72 -7 19.4 72 -11.3 11.7
17:35 1008 29.77 837 24.72 -7 19.4 72 -11.3 11.7
17:40 1008 29.77 837 24.72 -7 19.4 72 -11.3 11.7
17:45 1008 29.77 837 24.72 -7.1 19.2 71 -11.4 11.4
17:50 1008 29.77 837 24.72 -7.1 19.2 72 -11.4 11.5
17:55 1008 29.77 837 24.72 -7 19.4 71 -11.4 11.4
18:00 1008 29.77 837 24.72 -7 19.4 71 -11.4 11.5
18:05 1008 29.77 837 24.72 -7.1 19.3 71 -11.4 11.4
18:10 1008 29.77 837 24.72 -7 19.4 71 -11.4 11.5
18:15 1008 29.77 837 24.72 -7 19.4 71 -11.5 11.4
18:20 1008 29.77 837 24.72 -7 19.4 71 -11.5 11.4
18:25 1007 29.74 837 24.72 -7.1 19.2 71 -11.6 11.2
18:30 1007 29.74 837 24.72 -7.3 18.9 71 -11.7 10.9
18:35 1007 29.74 837 24.72 -7.3 18.9 71 -11.7 11
18:40 1007 29.74 837 24.72 -7.2 19.1 70 -11.7 11
18:45 1007 29.74 837 24.72 -7.2 19 70 -11.7 10.9
18:50 1007 29.74 836 24.69 -7.3 18.9 70 -11.9 10.7
18:55 1007 29.74 836 24.69 -7.4 18.7 71 -11.8 10.7
19:00 1007 29.74 836 24.69 -7.5 18.5 71 -11.9 10.6
19:05 1007 29.74 836 24.69 -7.6 18.3 71 -11.9 10.5
19:10 1007 29.74 836 24.69 -7.7 18.2 71 -12 10.4
19:15 1007 29.74 836 24.69 -7.7 18.1 71 -12.1 10.2
19:20 1007 29.74 836 24.69 -7.6 18.4 71 -12 10.4
19:25 1007 29.74 836 24.69 -7.8 18 71 -12.1 10.2
19:30 1007 29.74 836 24.69 -7.7 18.2 71 -12.1 10.2
19:35 1007 29.74 836 24.69 -7.6 18.2 70 -12.1 10.2
19:40 1007 29.74 836 24.69 -7.7 18.2 71 -12.2 10.1
19:45 1007 29.74 836 24.69 -7.6 18.3 70 -12.2 10.1
19:50 1007 29.74 836 24.69 -7.5 18.5 70 -12.1 10.2
19:55 1007 29.74 836 24.69 -7.6 18.4 70 -12.2 10.1
20:00 1007 29.74 836 24.69 -7.8 18 71 -12.2 10
20:05 1007 29.74 836 24.69 -7.8 18 70 -12.3 9.9
20:10 1006 29.71 836 24.69 -7.6 18.2 70 -12.2 10
20:15 1006 29.71 836 24.69 -7.7 18.2 70 -12.2 10
20:20 1006 29.71 836 24.69 -7.7 18.1 70 -12.3 9.9
20:25 1006 29.71 836 24.69 -7.8 18 71 -12.2 10
20:30 1006 29.71 835 24.66 -7.9 17.7 71 -12.3 9.9
20:35 1006 29.71 836 24.69 -8 17.7 71 -12.3 9.9
20:40 1006 29.71 836 24.69 -8 17.6 72 -12.2 10
20:45 1006 29.71 836 24.69 -8.1 17.4 72 -12.3 9.9
20:50 1006 29.71 836 24.69 -8.1 17.4 71 -12.5 9.5
20:55 1006 29.71 835 24.66 -8.2 17.3 72 -12.4 9.7
21:00 1006 29.71 835 24.66 -8.1 17.4 72 -12.4 9.7
21:05 1006 29.71 835 24.66 -8.1 17.4 72 -12.3 9.8
21:10 1006 29.71 835 24.66 -8.2 17.2 72 -12.4 9.6
21:15 1006 29.71 835 24.66 -8.2 17.3 72 -12.4 9.7
21:20 1006 29.71 835 24.66 -8.2 17.3 72 -12.3 9.8
21:25 1006 29.71 835 24.66 -8.1 17.4 72 -12.3 9.8
21:30 1006 29.71 835 24.66 -8.1 17.4 71 -12.4 9.6
21:35 1006 29.71 835 24.66 -8 17.5 71 -12.5 9.6
21:40 1006 29.71 835 24.66 -8.1 17.4 72 -12.3 9.8
21:45 1006 29.71 835 24.66 -8 17.6 72 -12.2 10
21:50 1006 29.71 835 24.66 -8 17.6 72 -12.2 10
21:55 1006 29.71 835 24.66 -7.9 17.7 72 -12.2 10.1
22:00 1006 29.71 835 24.66 -7.9 17.8 72 -12.1 10.2
22:05 1006 29.71 835 24.66 -7.9 17.8 72 -12.1 10.2
22:10 1006 29.71 835 24.66 -7.9 17.8 72 -12.1 10.3
22:15 1006 29.71 835 24.66 -7.8 18 72 -12.1 10.3
22:20 1006 29.71 835 24.66 -7.7 18.1 72 -12 10.5
22:25 1006 29.71 835 24.66 -7.6 18.3 71 -12 10.3
22:30 1006 29.71 835 24.66 -7.5 18.5 71 -12 10.4
22:35 1006 29.71 835 24.66 -7.5 18.6 70 -12 10.4
22:40 1005 29.68 835 24.66 -7.5 18.5 71 -12 10.5
22:45 1006 29.71 835 24.66 -7.6 18.3 71 -12 10.3
22:50 1005 29.68 835 24.66 -7.7 18.2 71 -12.1 10.2
22:55 1005 29.68 835 24.66 -7.7 18.1 71 -12.1 10.1
23:00 1005 29.68 835 24.66 -7.6 18.3 70 -12.1 10.2
23:05 1005 29.68 835 24.66 -7.3 18.8 69 -12 10.4
23:10 1005 29.68 835 24.66 -7.2 19.1 69 -11.9 10.5
23:15 1005 29.68 834 24.63 -7.2 19.1 69 -11.9 10.7
23:20 1005 29.68 834 24.63 -7.2 19 70 -11.8 10.7
23:25 1005 29.68 834 24.63 -7.5 18.6 71 -11.9 10.6
23:30 1005 29.68 834 24.63 -7.3 18.8 70 -11.9 10.6
23:35 1005 29.68 834 24.63 -7.2 19.1 70 -11.8 10.8
23:40 1005 29.68 834 24.63 -7.2 19.1 70 -11.7 11
23:45 1005 29.68 834 24.63 -7.1 19.3 70 -11.7 11
23:50 1005 29.68 834 24.63 -6.8 19.7 69 -11.6 11
23:55 1005 29.68 835 24.66 -6.6 20.1 68 -11.5 11.2
24:00 1005 29.68 834 24.63 -6.6 20.1 73 -10.8 12.6